Cou Falls, Iowa
Current Conditions -  °F | °C
As of 2:50 AM on Sunday 23 Nov 2014 (Local Time) from KCID Reporting Station
Overcast Overcast  
Wind Chill: 52°   Ceiling: 1000
Heat Index: 52°   Visibility: 9mi
Dew Point: 50°   Wind: 12mph
Humidity: 94%   Direction: 170°S
Pressure: 29.64"   Gusts: NA
Location:  41.8309°N, 91.7193°W
Report Text: KCID 230850Z AUTO 17010KT 9SM BKN010 OVC015 11/10 A2964 RMK AO2 CIG 008V013
Loading
Personal Weather Stations






























Interactive Weather Map New forecast layout! Learn more

10-Day Weather Forecast

Advertisements
Track Severe Weather on mobile